Terminal Aerodrome Forecast
Issued by NWS

Home | Current Version | Previous Version | Text Only | Print | Product List | Glossary On
Versions: 1 2 3 4 5 6 7 8 9 10 11 12 13 14 15
601
FTUS44 KEPZ 162032 AAA
TAFDMN
TAF AMD
KDMN 162032Z 1621/1718 25008KT P6SM FEW100
     FM162220 27010G20KT P6SM FEW100
     FM170900 02006KT P6SM FEW140 SCT250
     FM171700 27007KT P6SM FEW080 SCT200=

USA.gov is the U.S. government's official web portal to all federal, state and local government web resources and services.